Time;durP1;ratioP1;P1;durP2;ratioP2;P2;SDS_P1;SDS_P2;PMS_P1;PMS_P2;Temp;Humidity;BMP_temperature;BMP_pressure;BME280_temperature;BME280_humidity;BME280_pressure;Samples;Min_cycle;Max_cycle;Signal;HPM_P1;HPM_P2
2021/12/16 00:01:49;;;;;;;;;23.25;20.25;;;;;9.89;54.72;101920.97;146589;626;46020;-72
2021/12/16 00:08:02;;;;;;;;;23.25;20.50;;;;;9.88;55.00;101923.47;146594;640;46020;-79
2021/12/16 00:11:04;;;;;;;;;18.50;14.00;;;;;9.86;53.88;101922.44;146591;568;46016;-76
2021/12/16 00:30:09;;;;;;;;;14.00;12.75;;;;;9.65;51.30;101939.88;146597;593;46012;-76
2021/12/16 00:33:30;;;;;;;;;18.25;15.00;;;;;9.62;52.50;101945.72;146589;625;46020;-77
2021/12/16 00:36:22;;;;;;;;;31.50;26.50;;;;;9.64;52.61;101944.16;146593;586;46016;-80
2021/12/16 00:39:25;;;;;;;;;19.00;17.75;;;;;9.64;53.05;101938.97;146594;692;46020;-79
2021/12/16 00:42:48;;;;;;;;;14.75;12.50;;;;;9.68;52.23;101948.78;146594;603;47014;-75
2021/12/16 00:45:59;;;;;;;;;10.75;10.00;;;;;9.68;51.72;101951.34;146596;651;46020;-75
2021/12/16 00:55:37;;;;;;;;;13.00;13.00;;;;;9.64;51.75;101946.75;146598;563;46016;-74
2021/12/16 00:58:37;;;;;;;;;13.50;13.00;;;;;9.64;51.80;101938.97;146597;564;46010;-75
2021/12/16 01:05:31;;;;;;;;;18.75;15.00;;;;;9.69;53.64;101948.00;146589;583;46021;-75
2021/12/16 01:08:34;;;;;;;;;63.75;50.50;;;;;9.71;54.17;101953.28;146593;606;46016;-75
2021/12/16 01:47:46;;;;;;;;;12.25;12.25;;;;;8.84;54.35;101957.00;146596;578;46020;-79
2021/12/16 01:50:41;;;;;;;;;12.50;11.25;;;;;8.79;55.00;101949.78;146596;613;46012;-76
2021/12/16 01:57:08;;;;;;;;;10.50;10.00;;;;;8.74;54.41;101958.87;146597;595;46011;-80
2021/12/16 02:00:06;;;;;;;;;14.50;12.00;;;;;8.74;54.60;101957.97;146594;569;46016;-75
2021/12/16 02:03:05;;;;;;;;;16.00;12.50;;;;;8.73;54.14;101957.06;146595;584;46915;-74
2021/12/16 02:06:09;;;;;;;;;12.25;11.50;;;;;8.73;54.28;101963.94;146597;601;46017;-76
2021/12/16 02:09:01;;;;;;;;;13.00;11.75;;;;;8.71;54.66;101961.22;146590;639;46020;-82
2021/12/16 02:31:45;;;;;;;;;15.75;15.75;;;;;8.43;55.19;101941.72;146595;603;46914;-75
2021/12/16 02:37:53;;;;;;;;;18.75;15.00;;;;;8.41;56.58;101957.12;146593;599;46016;-74
2021/12/16 02:40:47;;;;;;;;;16.50;13.75;;;;;8.39;56.40;101944.88;146593;577;46011;-76
2021/12/16 02:50:15;;;;;;;;;15.50;12.75;;;;;8.32;55.66;101951.19;146595;607;47012;-79
2021/12/16 02:53:07;;;;;;;;;16.50;15.00;;;;;8.27;55.62;101950.81;146595;608;46020;-75
2021/12/16 02:56:00;;;;;;;;;20.00;14.75;;;;;8.25;55.65;101949.78;146597;634;46016;-75
2021/12/16 02:58:55;;;;;;;;;19.75;14.25;;;;;8.19;55.54;101946.69;146592;579;46020;-75
2021/12/16 03:01:51;;;;;;;;;17.75;14.00;;;;;8.17;55.91;101948.28;146596;610;46012;-79
2021/12/16 03:04:46;;;;;;;;;18.00;14.25;;;;;8.17;55.75;101952.56;146599;570;46010;-76
2021/12/16 03:07:38;;;;;;;;;18.25;14.50;;;;;8.14;55.69;101954.88;146598;671;46012;-77
2021/12/16 03:14:00;;;;;;;;;16.25;15.50;;;;;8.10;56.33;101956.31;146597;589;46012;-75
2021/12/16 03:17:15;;;;;;;;;18.50;16.75;;;;;8.08;56.26;101953.59;146597;577;47010;-74
2021/12/16 03:20:20;;;;;;;;;15.50;13.25;;;;;8.04;56.62;101948.97;146597;609;46017;-73
2021/12/16 03:30:15;;;;;;;;;9.50;9.50;;;;;7.78;56.79;101925.28;146593;580;46020;-74
2021/12/16 03:33:43;;;;;;;;;14.75;12.00;;;;;7.98;56.32;101965.66;146601;576;46018;-74
2021/12/16 03:36:36;;;;;;;;;14.50;11.75;;;;;7.98;56.92;101965.66;146596;617;46020;-77
2021/12/16 03:39:29;;;;;;;;;15.00;14.50;;;;;7.98;56.32;101965.66;146595;629;47012;-71
2021/12/16 03:42:35;;;;;;;;;15.50;15.25;;;;;7.94;57.30;101964.47;146593;659;46010;-71
2021/12/16 03:49:29;;;;;;;;;15.25;13.50;;;;;7.86;57.55;101961.28;146597;588;46010;-72
2021/12/16 03:52:22;;;;;;;;;22.00;16.75;;;;;7.83;57.46;101968.78;146599;607;47012;-71
2021/12/16 03:55:15;;;;;;;;;16.50;14.50;;;;;7.81;58.11;101965.16;146595;588;46027;-72
2021/12/16 03:58:08;;;;;;;;;15.25;13.00;;;;;7.81;57.76;101967.75;146594;653;46016;-80
2021/12/16 04:01:04;;;;;;;;;16.25;12.25;;;;;7.80;57.58;101962.47;146592;594;47010;-81
2021/12/16 04:03:57;;;;;;;;;14.75;14.00;;;;;7.80;57.55;101965.94;146601;610;46021;-70
2021/12/16 04:06:49;;;;;;;;;17.00;15.25;;;;;7.82;58.10;101960.94;146599;645;46915;-72
2021/12/16 04:09:41;;;;;;;;;18.50;15.00;;;;;7.80;58.57;101958.22;146594;583;47012;-74
2021/12/16 04:12:33;;;;;;;;;14.75;14.25;;;;;7.75;58.50;101963.75;146591;565;46010;-75
2021/12/16 04:15:25;;;;;;;;;14.00;14.00;;;;;7.72;58.13;101967.00;146599;766;46012;-75
2021/12/16 04:18:18;;;;;;;;;18.00;16.50;;;;;7.69;59.32;101965.84;146595;580;46010;-76
2021/12/16 04:21:11;;;;;;;;;21.25;18.00;;;;;7.62;58.75;101972.19;146595;609;46016;-76
2021/12/16 04:24:03;;;;;;;;;18.25;17.25;;;;;7.56;58.94;101969.97;146595;567;46020;-77
2021/12/16 04:26:57;;;;;;;;;25.50;20.00;;;;;7.54;59.17;101975.78;146594;565;46016;-73
2021/12/16 04:29:50;;;;;;;;;20.50;18.00;;;;;7.54;59.46;101980.94;146596;620;46012;-74
2021/12/16 04:32:43;;;;;;;;;19.50;17.25;;;;;7.52;59.23;101985.09;146591;609;46016;-75
2021/12/16 04:35:36;;;;;;;;;19.50;17.00;;;;;7.46;59.65;101990.66;146601;583;46010;-78
2021/12/16 04:38:28;;;;;;;;;18.75;17.50;;;;;7.38;59.33;101991.66;146591;574;46016;-77
2021/12/16 04:41:21;;;;;;;;;15.50;13.50;;;;;7.25;59.81;101988.84;146591;584;46010;-76
2021/12/16 04:44:17;;;;;;;;;26.50;23.75;;;;;7.15;60.04;101990.63;146595;637;46916;-76
2021/12/16 04:47:09;;;;;;;;;22.25;18.25;;;;;7.04;60.09;102000.81;146596;564;46011;-75
2021/12/16 04:50:01;;;;;;;;;20.25;18.75;;;;;6.91;60.53;101998.84;146595;629;46916;-77
2021/12/16 04:52:54;;;;;;;;;22.50;19.50;;;;;6.79;61.33;102001.31;146596;578;46012;-78
2021/12/16 04:55:47;;;;;;;;;21.25;18.75;;;;;6.68;60.72;101999.44;146596;629;46012;-77
2021/12/16 04:58:40;;;;;;;;;17.00;16.25;;;;;6.64;61.26;102010.28;146597;603;46020;-72
2021/12/16 05:01:32;;;;;;;;;20.00;18.00;;;;;6.65;61.35;102004.34;146597;615;46013;-74
2021/12/16 05:04:25;;;;;;;;;15.25;15.00;;;;;6.64;61.22;102006.00;146596;619;46020;-74
2021/12/16 05:07:18;;;;;;;;;22.00;17.50;;;;;6.67;61.20;102003.72;146596;571;47010;-75
2021/12/16 05:10:12;;;;;;;;;22.75;17.00;;;;;6.70;61.02;102003.97;146589;636;46021;-73
2021/12/16 05:13:05;;;;;;;;;29.25;23.75;;;;;6.76;61.04;102010.41;146596;629;47012;-73
2021/12/16 05:16:02;;;;;;;;;20.50;18.25;;;;;6.80;61.22;102013.41;146597;567;46010;-77
2021/12/16 05:18:56;;;;;;;;;22.75;19.50;;;;;6.83;60.82;102013.69;146593;585;46016;-78
2021/12/16 05:21:55;;;;;;;;;22.50;21.00;;;;;6.84;60.72;102010.31;146596;620;46010;-76
2021/12/16 05:24:48;;;;;;;;;23.00;19.00;;;;;6.84;60.62;102006.84;146595;645;46016;-77
2021/12/16 05:27:41;;;;;;;;;25.50;22.50;;;;;6.85;60.37;102009.56;146595;569;46020;-77
2021/12/16 05:30:33;;;;;;;;;17.25;15.75;;;;;6.88;60.46;102016.63;146595;587;46916;-78
2021/12/16 05:33:27;;;;;;;;;24.00;20.00;;;;;6.85;59.61;102004.41;146599;600;46010;-77
2021/12/16 05:36:20;;;;;;;;;21.50;18.00;;;;;6.85;60.37;101994.09;146588;571;46012;-78
2021/12/16 05:39:13;;;;;;;;;20.75;19.25;;;;;6.82;60.43;102006.72;146586;586;47011;-77
2021/12/16 05:42:06;;;;;;;;;22.25;19.00;;;;;6.75;60.31;101999.19;146596;639;46012;-77
2021/12/16 05:44:58;;;;;;;;;23.75;21.00;;;;;6.70;60.14;102003.97;146595;611;46916;-77
2021/12/16 05:47:50;;;;;;;;;23.00;19.00;;;;;6.65;60.19;101999.19;146593;631;46017;-78
2021/12/16 05:50:45;;;;;;;;;34.25;26.00;;;;;6.60;60.33;102001.34;146598;647;46010;-77
2021/12/16 05:53:38;;;;;;;;;24.50;22.25;;;;;6.60;60.68;102003.91;146592;582;46017;-79
2021/12/16 05:56:30;;;;;;;;;27.25;23.50;;;;;6.61;60.62;102008.31;146597;649;46010;-77
2021/12/16 05:59:23;;;;;;;;;19.75;18.75;;;;;6.61;61.01;102010.00;146592;569;46016;-77
2021/12/16 06:02:15;;;;;;;;;27.75;23.25;;;;;6.57;60.90;102015.63;146596;636;46018;-79
2021/12/16 06:05:08;;;;;;;;;23.25;22.50;;;;;6.48;61.09;102016.66;146592;618;46016;-77
2021/12/16 06:08:01;;;;;;;;;26.25;22.50;;;;;6.43;60.62;102024.75;146594;703;45030;-78
2021/12/16 06:14:39;;;;;;;;;20.75;18.00;;;;;6.39;59.45;102014.94;146594;616;47010;-76
2021/12/16 06:27:09;;;;;;;;;24.50;20.75;;;;;6.64;58.56;102033.47;146592;579;46020;-85
2021/12/16 06:30:02;;;;;;;;;26.50;23.00;;;;;6.70;58.32;102031.44;146592;591;46916;-85
2021/12/16 06:32:54;;;;;;;;;31.50;27.00;;;;;6.73;58.32;102039.44;146594;570;46020;-85
2021/12/16 06:35:47;;;;;;;;;33.50;28.50;;;;;6.73;58.17;102039.44;146595;603;47016;-73
2021/12/16 06:38:39;;;;;;;;;27.00;22.25;;;;;6.74;58.69;102040.34;146593;591;45030;-74
2021/12/16 06:41:35;;;;;;;;;32.25;25.50;;;;;6.89;58.74;102040.00;146588;570;47916;-75
2021/12/16 06:44:37;;;;;;;;;34.25;28.00;;;;;7.42;57.62;102035.03;146595;743;46012;-71
2021/12/16 06:47:37;;;;;;;;;45.00;37.00;;;;;8.23;56.38;102033.16;146594;700;46017;-71
2021/12/16 06:50:48;;;;;;;;;40.75;33.00;;;;;9.08;54.82;102035.62;146595;616;46020;-71
2021/12/16 06:53:50;;;;;;;;;36.25;30.25;;;;;9.82;53.18;102034.41;146594;599;46016;-72
2021/12/16 06:56:51;;;;;;;;;34.50;29.75;;;;;10.48;51.20;102037.59;146595;583;46010;-71
2021/12/16 07:00:06;;;;;;;;;31.75;28.25;;;;;11.00;50.22;102024.84;146599;760;46012;-73
2021/12/16 07:03:01;;;;;;;;;36.50;32.25;;;;;11.66;50.60;102030.28;146597;625;46010;-72
2021/12/16 07:05:57;;;;;;;;;29.75;29.00;;;;;12.42;48.67;102039.66;146595;569;47012;-75
2021/12/16 07:08:52;;;;;;;;;45.25;35.25;;;;;13.05;47.10;102037.53;146590;590;46916;-76
2021/12/16 07:11:47;;;;;;;;;46.75;35.00;;;;;13.49;45.64;102034.19;146593;572;46016;-77
2021/12/16 07:14:40;;;;;;;;;39.50;32.25;;;;;13.79;44.91;102038.62;146597;593;46010;-71
2021/12/16 07:17:33;;;;;;;;;40.00;34.25;;;;;13.95;44.55;102042.12;146594;586;46916;-71
2021/12/16 07:20:30;;;;;;;;;38.00;32.00;;;;;14.03;44.56;102040.88;146594;598;46010;-71
2021/12/16 07:23:22;;;;;;;;;37.25;30.50;;;;;14.09;44.32;102036.91;146586;565;47012;-71
2021/12/16 07:26:14;;;;;;;;;35.50;30.00;;;;;14.11;44.02;102039.59;146594;615;46020;-71
2021/12/16 07:29:08;;;;;;;;;38.25;32.00;;;;;14.18;43.77;102038.28;146592;775;46016;-72
2021/12/16 07:32:01;;;;;;;;;34.00;27.75;;;;;14.21;42.28;102041.94;146596;588;47012;-71
2021/12/16 07:34:54;;;;;;;;;32.00;26.50;;;;;14.23;42.56;102035.09;146592;668;46916;-71
2021/12/16 07:37:46;;;;;;;;;40.25;32.25;;;;;14.25;43.27;102030.88;146592;627;46021;-74
2021/12/16 07:40:42;;;;;;;;;31.50;28.00;;;;;14.19;42.38;102035.72;146593;603;46016;-74
2021/12/16 07:43:53;;;;;;;;;30.25;28.25;;;;;13.03;43.22;101851.69;146596;573;46030;-74
2021/12/16 07:46:49;;;;;;;;;23.25;21.75;;;;;13.73;42.20;102024.34;146596;658;46012;-74
2021/12/16 07:49:46;;;;;;;;;23.25;22.00;;;;;13.42;43.85;102025.09;146596;624;46010;-77
2021/12/16 07:52:40;;;;;;;;;21.25;18.50;;;;;13.18;44.70;102030.59;146594;712;46016;-77
2021/12/16 07:55:33;;;;;;;;;24.50;21.75;;;;;13.05;44.08;102024.53;146598;572;46020;-77
2021/12/16 07:58:25;;;;;;;;;23.25;19.00;;;;;12.88;45.06;102019.19;146594;587;46035;-77
2021/12/16 08:01:18;;;;;;;;;20.75;20.25;;;;;12.81;45.19;102023.91;146597;595;46010;-79
2021/12/16 08:04:18;;;;;;;;;18.75;16.50;;;;;12.79;45.12;102023.81;146593;582;46016;-77
2021/12/16 08:07:13;;;;;;;;;22.00;17.50;;;;;12.79;45.15;102022.91;146588;599;47011;-83
2021/12/16 08:10:05;;;;;;;;;24.00;21.50;;;;;12.75;46.12;102031.34;146591;569;46016;-83
2021/12/16 08:12:58;;;;;;;;;21.25;19.25;;;;;12.84;44.13;102029.31;146595;598;46012;-78
2021/12/16 08:15:51;;;;;;;;;18.75;17.00;;;;;12.83;44.54;102024.88;146595;612;46017;-80
2021/12/16 08:18:43;;;;;;;;;19.50;17.00;;;;;12.82;44.81;102018.78;146599;586;46010;-79
2021/12/16 08:21:35;;;;;;;;;16.25;15.50;;;;;12.81;44.90;102019.59;146595;580;46016;-70
2021/12/16 08:24:28;;;;;;;;;20.75;18.25;;;;;12.79;44.36;102025.50;146598;609;46010;-69
2021/12/16 08:27:20;;;;;;;;;18.75;16.25;;;;;12.75;45.61;102024.44;146593;597;47012;-69
2021/12/16 08:30:16;;;;;;;;;15.00;13.75;;;;;12.79;44.30;102025.50;146595;594;46021;-68
2021/12/16 08:33:10;;;;;;;;;20.75;17.00;;;;;12.87;44.75;102020.00;146597;587;46916;-69
2021/12/16 08:36:04;;;;;;;;;21.00;18.75;;;;;12.94;44.05;102016.97;146589;648;46021;-69
2021/12/16 08:38:56;;;;;;;;;18.25;15.00;;;;;12.98;42.82;102017.16;146594;609;46035;-69
2021/12/16 08:41:53;;;;;;;;;20.00;18.00;;;;;13.01;44.18;102017.34;146595;583;46033;-68
2021/12/16 08:44:46;;;;;;;;;23.25;20.00;;;;;13.05;43.66;102015.03;146595;586;47012;-66
2021/12/16 08:47:38;;;;;;;;;23.50;19.25;;;;;13.10;42.61;102012.69;146597;582;47010;-69
2021/12/16 08:50:34;;;;;;;;;24.00;22.00;;;;;13.12;42.09;102013.69;146593;571;46016;-68
2021/12/16 08:53:27;;;;;;;;;17.25;16.00;;;;;13.12;41.80;102014.59;146595;597;46020;-67
2021/12/16 08:56:20;;;;;;;;;20.75;18.25;;;;;13.10;43.00;102007.50;146594;657;46016;-68
2021/12/16 08:59:12;;;;;;;;;19.00;19.00;;;;;13.15;43.57;102006.09;146598;645;46012;-67
2021/12/16 09:02:07;;;;;;;;;27.25;26.50;;;;;13.25;42.58;101995.44;146599;637;46012;-66
2021/12/16 09:04:59;;;;;;;;;18.25;18.25;;;;;13.37;42.35;102006.59;146584;639;48916;-66
2021/12/16 09:07:52;;;;;;;;;22.75;21.50;;;;;13.46;41.40;101997.50;146596;578;46012;-65
2021/12/16 09:10:44;;;;;;;;;22.50;15.50;;;;;13.45;39.16;101995.72;146596;607;46020;-66
2021/12/16 09:13:39;;;;;;;;;14.00;13.00;;;;;13.36;40.16;101991.78;146592;581;46017;-66
2021/12/16 09:16:35;;;;;;;;;21.75;16.00;;;;;13.29;41.53;101992.19;146594;579;46020;-66
2021/12/16 09:19:27;;;;;;;;;21.50;18.00;;;;;13.27;42.18;101987.69;146595;576;46012;-67
2021/12/16 09:22:20;;;;;;;;;17.75;16.25;;;;;13.33;41.10;101990.69;146596;578;46021;-65
2021/12/16 09:25:14;;;;;;;;;13.75;13.25;;;;;12.44;40.80;101814.38;146594;645;46016;-67
2021/12/16 09:28:06;;;;;;;;;13.75;13.00;;;;;13.43;41.22;101980.03;146597;549;46010;-66
2021/12/16 09:30:59;;;;;;;;;18.25;16.00;;;;;13.55;41.79;101972.94;146597;595;46012;-67
2021/12/16 09:33:56;;;;;;;;;16.50;16.00;;;;;13.68;42.05;101971.06;146588;612;47012;-66
2021/12/16 09:36:48;;;;;;;;;15.50;14.50;;;;;13.84;41.24;101974.62;146600;578;46014;-66
2021/12/16 09:39:41;;;;;;;;;15.50;13.75;;;;;13.92;38.90;101977.66;146596;611;46010;-66
2021/12/16 09:42:35;;;;;;;;;14.25;14.25;;;;;13.93;39.04;101969.03;146593;640;46916;-66
2021/12/16 09:45:28;;;;;;;;;16.75;13.75;;;;;13.91;40.12;101972.37;146594;613;46020;-67
2021/12/16 09:48:21;;;;;;;;;19.50;18.00;;;;;13.94;41.07;101965.63;146598;659;46012;-66
2021/12/16 09:51:22;;;;;;;;;18.75;15.00;;;;;14.00;40.88;101965.97;146595;585;46020;-66
2021/12/16 09:54:20;;;;;;;;;16.75;15.75;;;;;14.09;38.82;101963.88;146593;596;46016;-66
2021/12/16 09:57:14;;;;;;;;;16.75;13.75;;;;;14.17;40.36;101953.88;146599;656;46010;-67
2021/12/16 10:00:12;;;;;;;;;16.00;15.00;;;;;14.29;41.16;101944.12;146594;688;46012;-66
2021/12/16 10:03:06;;;;;;;;;18.75;16.25;;;;;14.41;39.14;101943.00;146590;580;46916;-66
2021/12/16 10:05:59;;;;;;;;;17.50;15.25;;;;;14.48;40.15;101938.19;146595;619;47012;-66
2021/12/16 10:08:51;;;;;;;;;14.50;12.75;;;;;14.57;40.16;101936.94;146598;729;46915;-66
2021/12/16 10:11:47;;;;;;;;;15.75;13.50;;;;;14.67;40.45;101928.78;146596;616;46016;-66
2021/12/16 10:15:03;;;;;;;;;16.75;13.00;;;;;14.78;40.72;101923.34;146595;569;47012;-66
2021/12/16 10:17:55;;;;;;;;;35.75;28.25;;;;;14.88;39.86;101926.44;146595;626;46016;-66
2021/12/16 10:21:02;;;;;;;;;36.25;31.50;;;;;14.96;41.80;101920.81;146596;570;46011;-66
2021/12/16 10:23:54;;;;;;;;;22.75;18.00;;;;;15.13;40.10;101906.00;146592;613;47012;-67
2021/12/16 10:26:47;;;;;;;;;18.25;15.00;;;;;15.17;39.22;101901.81;146597;584;46010;-67
2021/12/16 10:29:57;;;;;;;;;18.25;17.00;;;;;15.20;42.28;101904.59;146594;620;46017;-68
2021/12/16 10:32:51;;;;;;;;;15.25;12.00;;;;;15.38;41.34;101908.16;146591;575;46019;-67
2021/12/16 10:35:47;;;;;;;;;13.75;13.25;;;;;15.59;41.09;101908.34;146594;565;46017;-65
2021/12/16 10:38:43;;;;;;;;;16.00;15.00;;;;;15.78;40.50;101907.56;146597;566;46010;-66
2021/12/16 10:42:07;;;;;;;;;21.75;19.00;;;;;15.62;40.95;101844.84;146594;574;46016;-66
2021/12/16 10:44:59;;;;;;;;;157.00;137.50;;;;;15.92;36.54;101892.53;146603;566;46010;-66
2021/12/16 10:48:29;;;;;;;;;67.75;52.00;;;;;15.77;40.44;101892.69;146595;563;46012;-66
2021/12/16 10:51:31;;;;;;;;;22.50;19.00;;;;;15.74;40.93;101891.66;146594;597;46020;-67
2021/12/16 10:54:48;;;;;;;;;26.00;23.25;;;;;15.88;40.84;101898.44;146591;618;46016;-69
2021/12/16 10:57:40;;;;;;;;;20.00;17.25;;;;;15.97;38.47;101877.06;146596;569;46011;-66
2021/12/16 11:00:38;;;;;;;;;17.75;17.00;;;;;15.93;38.58;101878.63;146595;581;46033;-67
2021/12/16 11:03:47;;;;;;;;;25.50;20.25;;;;;15.92;41.16;101880.34;146590;581;46020;-66
2021/12/16 11:06:50;;;;;;;;;20.50;18.25;;;;;15.91;38.09;101880.28;146592;581;47014;-65
2021/12/16 11:09:54;;;;;;;;;25.00;23.50;;;;;15.89;38.29;101874.09;146597;602;46010;-67
2021/12/16 11:12:52;;;;;;;;;54.25;41.50;;;;;15.82;40.06;101875.47;146594;690;46013;-70
2021/12/16 11:15:55;;;;;;;;;40.25;33.00;;;;;15.83;39.24;101871.19;146596;618;46020;-70
2021/12/16 11:18:47;;;;;;;;;46.50;38.00;;;;;15.05;38.18;101714.03;146596;599;46016;-69
2021/12/16 11:21:40;;;;;;;;;20.00;15.75;;;;;15.99;37.43;101864.97;146591;600;46021;-69
2021/12/16 11:24:32;;;;;;;;;23.75;19.25;;;;;16.04;37.81;101858.19;146597;753;46012;-66
2021/12/16 11:27:36;;;;;;;;;23.00;20.75;;;;;16.08;38.36;101865.41;146594;571;46021;-66
2021/12/16 11:31:08;;;;;;;;;57.75;46.00;;;;;15.62;39.75;101774.25;146592;580;47014;-66
2021/12/16 11:34:06;;;;;;;;;26.25;24.50;;;;;16.22;39.73;101855.56;146588;611;46028;-66
2021/12/16 11:36:58;;;;;;;;;26.75;25.50;;;;;16.38;37.67;101855.41;146597;597;46012;-66
2021/12/16 11:39:50;;;;;;;;;33.00;29.50;;;;;16.42;37.23;101846.91;146596;569;46010;-67
2021/12/16 11:42:43;;;;;;;;;46.25;37.00;;;;;16.38;36.85;101851.06;146593;634;46916;-66
2021/12/16 11:45:40;;;;;;;;;32.50;28.25;;;;;16.38;38.29;101842.34;146595;592;46010;-66
2021/12/16 11:48:38;;;;;;;;;23.00;20.50;;;;;16.51;37.45;101843.78;146597;577;46012;-67
2021/12/16 11:51:43;;;;;;;;;14.25;13.75;;;;;16.65;39.59;101839.19;146595;565;47010;-67
2021/12/16 11:54:44;;;;;;;;;14.25;13.00;;;;;16.76;39.03;101835.31;146597;563;46012;-67
2021/12/16 11:58:00;;;;;;;;;17.75;15.00;;;;;16.90;38.85;101839.44;146591;569;47020;-65
2021/12/16 12:00:52;;;;;;;;;14.75;13.75;;;;;17.13;37.62;101843.03;146595;586;46016;-67
2021/12/16 12:03:45;;;;;;;;;17.25;15.25;;;;;17.32;38.21;101826.37;146587;566;47010;-66
2021/12/16 12:06:40;;;;;;;;;21.50;16.50;;;;;17.57;37.04;101823.03;146595;585;46016;-67
2021/12/16 12:09:54;;;;;;;;;18.25;18.25;;;;;17.63;38.24;101818.03;146593;583;46020;-67
2021/12/16 12:12:51;;;;;;;;;57.75;46.50;;;;;17.68;37.96;101808.59;146594;630;46916;-68
2021/12/16 12:16:03;;;;;;;;;23.50;21.75;;;;;17.75;38.94;101773.88;146595;595;46010;-67
2021/12/16 12:18:59;;;;;;;;;21.00;19.75;;;;;17.98;36.25;101813.28;146593;594;46016;-67
2021/12/16 12:22:11;;;;;;;;;20.25;19.25;;;;;17.11;39.41;101648.19;146598;609;46010;-67
2021/12/16 12:25:03;;;;;;;;;20.75;19.75;;;;;18.20;36.63;101805.41;146596;670;46914;-67
2021/12/16 12:27:55;;;;;;;;;20.00;18.75;;;;;18.41;35.65;101800.03;146597;564;46020;-68
2021/12/16 12:30:48;;;;;;;;;18.00;16.75;;;;;18.54;36.53;101809.25;146597;739;46012;-67
2021/12/16 12:33:41;;;;;;;;;21.00;18.00;;;;;18.72;36.20;101801.09;146592;693;46010;-67
2021/12/16 12:36:33;;;;;;;;;22.75;20.25;;;;;18.86;36.80;101805.16;146595;582;46014;-68
2021/12/16 12:39:30;;;;;;;;;18.50;16.50;;;;;19.08;37.21;101800.63;146593;595;46020;-68
2021/12/16 12:42:22;;;;;;;;;22.50;20.75;;;;;19.29;36.26;101801.34;146595;654;46016;-67
2021/12/16 12:45:19;;;;;;;;;18.25;16.50;;;;;19.45;36.54;101804.47;146593;613;46020;-67
2021/12/16 12:48:17;;;;;;;;;21.00;16.25;;;;;19.53;35.46;101805.59;146596;628;46013;-68
2021/12/16 12:51:11;;;;;;;;;20.00;19.25;;;;;19.46;35.17;101798.38;146594;607;46020;-67
2021/12/16 12:54:03;;;;;;;;;16.25;15.25;;;;;19.42;36.21;101804.38;146591;572;46016;-68
2021/12/16 12:56:58;;;;;;;;;19.25;18.25;;;;;19.44;36.37;101805.31;146597;570;47011;-70
2021/12/16 12:59:50;;;;;;;;;29.00;25.50;;;;;19.53;36.00;101797.72;146597;618;46916;-68
2021/12/16 13:02:42;;;;;;;;;23.00;21.00;;;;;19.59;35.28;101797.91;146590;615;46010;-67
2021/12/16 13:05:35;;;;;;;;;21.00;19.75;;;;;19.59;35.60;101793.56;146592;564;46016;-67
2021/12/16 13:08:37;;;;;;;;;24.75;21.25;;;;;19.53;36.48;101796.00;146597;608;46020;-67
2021/12/16 13:11:34;;;;;;;;;19.75;18.75;;;;;19.37;35.97;101794.59;146596;579;46013;-67
2021/12/16 13:14:44;;;;;;;;;25.75;23.00;;;;;19.40;36.16;101801.69;146593;652;46020;-67
2021/12/16 13:27:47;;;;;;;;;22.00;20.25;;;;;19.37;35.66;101794.59;146594;569;46010;-69
2021/12/16 13:30:51;;;;;;;;;24.00;23.50;;;;;19.13;36.31;101793.81;146591;569;46916;-69
2021/12/16 13:33:54;;;;;;;;;26.75;23.50;;;;;19.06;36.60;101792.69;146590;569;47011;-69
2021/12/16 13:36:55;;;;;;;;;38.25;33.50;;;;;19.03;38.10;101796.94;146594;588;47012;-69
2021/12/16 13:39:50;;;;;;;;;46.25;37.00;;;;;19.01;36.17;101798.66;146593;630;46020;-69
2021/12/16 13:43:02;;;;;;;;;25.25;23.50;;;;;18.90;39.19;101799.16;146592;586;46016;-70
2021/12/16 13:46:40;;;;;;;;;26.75;26.25;;;;;17.78;40.27;101619.25;146593;599;46020;-69
2021/12/16 14:02:36;;;;;;;;;19.75;19.00;;;;;17.72;38.15;101805.25;146597;623;46013;-68
2021/12/16 14:06:12;;;;;;;;;15.75;15.75;;;;;17.57;39.87;101802.06;146589;579;47020;-68
2021/12/16 14:09:22;;;;;;;;;25.25;23.75;;;;;17.35;41.13;101799.37;146589;669;47014;-70
2021/12/16 14:35:50;;;;;;;;;33.75;26.50;;;;;15.70;40.12;101802.59;146592;593;46016;-68
2021/12/16 14:39:13;;;;;;;;;50.50;42.00;;;;;15.34;41.66;101806.91;146590;581;46021;-69
2021/12/16 14:42:24;;;;;;;;;50.25;41.75;;;;;14.96;41.89;101812.84;146592;591;46016;-68
2021/12/16 14:45:39;;;;;;;;;50.25;40.00;;;;;14.60;42.96;101812.72;146593;625;46020;-68
2021/12/16 14:48:35;;;;;;;;;37.50;34.00;;;;;14.28;42.39;101816.22;146595;641;46917;-69
2021/12/16 14:51:28;;;;;;;;;38.75;32.50;;;;;13.94;43.06;101819.59;146592;586;46020;-69
2021/12/16 14:54:20;;;;;;;;;43.00;36.00;;;;;13.64;43.97;101821.38;146597;606;46012;-70
2021/12/16 14:57:12;;;;;;;;;48.75;38.25;;;;;13.36;44.32;101831.94;146600;566;46010;-71
2021/12/16 15:00:19;;;;;;;;;38.00;31.75;;;;;13.10;44.67;101820.00;146597;564;46014;-69
2021/12/16 15:03:17;;;;;;;;;34.75;30.75;;;;;12.84;44.70;101821.06;146596;572;46010;-70
2021/12/16 15:06:20;;;;;;;;;33.75;30.25;;;;;12.59;45.79;101826.53;146594;578;47012;-70
2021/12/16 15:09:22;;;;;;;;;25.00;24.50;;;;;12.37;45.88;101824.31;146592;580;46011;-70
2021/12/16 15:12:36;;;;;;;;;37.25;30.75;;;;;12.16;46.73;101831.69;146596;695;46012;-69
2021/12/16 15:35:52;;;;;;;;;58.00;46.00;;;;;11.05;49.57;101839.19;146594;573;46020;-69
2021/12/16 15:38:43;;;;;;;;;50.75;40.75;;;;;10.90;49.80;101836.44;146596;605;47018;-70
2021/12/16 15:44:50;;;;;;;;;83.67;78.00;;;;;10.49;51.00;101838.81;146596;615;46016;-71
2021/12/16 15:47:46;;;;;;;;;55.75;43.75;;;;;10.30;51.72;101847.00;146601;599;46010;-71
2021/12/16 15:51:02;;;;;;;;;49.50;41.50;;;;;10.10;52.02;101843.87;146597;617;46012;-72
2021/12/16 15:53:59;;;;;;;;;74.50;62.75;;;;;9.90;52.76;101846.72;146591;582;46021;-72
2021/12/16 15:56:59;;;;;;;;;58.50;47.25;;;;;9.74;53.42;101860.25;146595;569;46016;-71
2021/12/16 15:59:51;;;;;;;;;54.50;43.00;;;;;9.63;53.71;101856.91;146593;662;46020;-71
2021/12/16 16:02:43;;;;;;;;;48.25;39.00;;;;;9.50;54.08;101859.38;146596;610;46916;-71
2021/12/16 16:05:39;;;;;;;;;68.25;51.75;;;;;9.34;54.33;101857.34;146596;634;46010;-71
2021/12/16 16:08:34;;;;;;;;;72.75;58.00;;;;;9.19;55.02;101861.38;146597;583;45916;-70
2021/12/16 16:11:34;;;;;;;;;70.75;55.25;;;;;9.07;55.01;101858.78;146590;628;46020;-70
2021/12/16 16:14:32;;;;;;;;;51.00;40.75;;;;;8.95;54.90;101858.75;146593;604;46016;-70
2021/12/16 16:17:25;;;;;;;;;60.25;45.75;;;;;8.87;54.94;101856.38;146597;633;45037;-70
2021/12/16 16:20:17;;;;;;;;;66.50;51.50;;;;;8.78;55.59;101860.06;146590;588;46016;-70
2021/12/16 16:23:13;;;;;;;;;56.50;45.50;;;;;8.70;55.63;101866.31;146597;564;46029;-70
2021/12/16 16:26:12;;;;;;;;;60.50;48.25;;;;;8.62;55.78;101862.25;146595;633;46916;-70
2021/12/16 16:29:16;;;;;;;;;61.00;48.00;;;;;8.59;55.92;101862.00;146595;626;47010;-70
2021/12/16 16:32:09;;;;;;;;;62.00;46.00;;;;;8.54;56.12;101863.34;146596;609;46916;-70
2021/12/16 16:35:02;;;;;;;;;64.25;50.50;;;;;8.50;56.15;101866.47;146597;632;46010;-70
2021/12/16 16:37:54;;;;;;;;;62.25;48.25;;;;;8.41;57.00;101865.75;146591;571;46017;-70
2021/12/16 16:40:52;;;;;;;;;64.00;48.75;;;;;8.30;56.30;101867.47;146592;565;46010;-70
2021/12/16 16:43:48;;;;;;;;;58.50;46.25;;;;;8.18;56.90;101867.41;146594;568;46016;-70
2021/12/16 16:46:51;;;;;;;;;58.75;45.00;;;;;8.15;56.89;101866.25;146593;619;46021;-70